createdAt,value
2017-01-10T00:00:50.000Z,99.99
2017-01-10T00:02:01.398Z,99.99
2017-01-10T00:03:12.801Z,99.99
2017-01-10T00:04:24.208Z,99.99
2017-01-10T00:05:35.655Z,99.99
2017-01-10T00:06:47.055Z,99.99
2017-01-10T00:07:58.654Z,99.99
2017-01-10T00:09:10.056Z,99.99
2017-01-10T00:10:21.461Z,99.99
2017-01-10T00:11:33.119Z,99.99
2017-01-10T00:12:44.514Z,99.99
2017-01-10T00:13:55.910Z,99.99
2017-01-10T00:15:07.298Z,99.99
2017-01-10T00:16:18.700Z,99.99
2017-01-10T00:17:30.148Z,99.99
2017-01-10T00:18:41.547Z,99.99
2017-01-10T00:19:53.182Z,99.99
2017-01-10T00:21:04.584Z,99.99
2017-01-10T00:22:15.989Z,99.99
2017-01-10T00:23:27.441Z,99.99
2017-01-10T00:24:39.042Z,99.99
2017-01-10T00:25:50.442Z,99.99
2017-01-10T00:27:01.847Z,99.99
2017-01-10T00:28:13.252Z,99.99
2017-01-10T00:29:24.698Z,99.99
2017-01-10T00:30:36.110Z,99.99
2017-01-10T00:31:47.514Z,99.99
2017-01-10T00:32:58.917Z,99.99
2017-01-10T00:34:10.346Z,99.99
2017-01-10T00:35:21.827Z,99.99
2017-01-10T00:36:33.225Z,99.99
2017-01-10T00:37:44.628Z,99.99
2017-01-10T00:38:56.017Z,99.99
2017-01-10T00:40:07.620Z,99.99
2017-01-10T00:41:19.268Z,99.99
2017-01-10T00:42:30.671Z,99.99
2017-01-10T00:43:42.074Z,99.99
2017-01-10T00:44:53.493Z,99.99
2017-01-10T00:46:05.090Z,99.99
2017-01-10T00:47:16.551Z,99.99
2017-01-10T00:48:27.954Z,99.99
2017-01-10T00:49:39.367Z,99.99
2017-01-10T00:50:50.765Z,99.99
2017-01-10T00:52:02.165Z,99.99
2017-01-10T00:53:13.815Z,99.99
2017-01-10T00:54:25.223Z,99.99
2017-01-10T00:55:36.816Z,99.99
2017-01-10T00:56:48.426Z,99.99
2017-01-10T00:57:59.822Z,99.99
2017-01-10T00:59:11.267Z,99.99
2017-01-10T01:00:22.868Z,99.99
2017-01-10T01:01:34.262Z,99.99
2017-01-10T01:02:45.863Z,99.99
2017-01-10T01:03:57.466Z,99.99
2017-01-10T01:05:08.918Z,99.99
2017-01-10T01:06:20.324Z,99.99
2017-01-10T01:07:31.731Z,99.99
2017-01-10T01:08:43.129Z,99.99
2017-01-10T01:09:54.565Z,99.99
2017-01-10T01:11:06.021Z,99.99
2017-01-10T01:12:17.625Z,99.99
2017-01-10T01:13:29.216Z,99.99
2017-01-10T01:14:40.616Z,99.99
2017-01-10T01:15:52.017Z,99.99
2017-01-10T01:17:03.471Z,99.99
2017-01-10T01:18:14.874Z,99.99
2017-01-10T01:19:26.270Z,99.99
2017-01-10T01:20:37.670Z,99.99
2017-01-10T01:21:49.277Z,99.99
2017-01-10T01:23:00.930Z,99.99
2017-01-10T01:24:12.336Z,99.99
2017-01-10T01:25:23.735Z,99.99
2017-01-10T01:26:35.129Z,99.99
2017-01-10T01:27:46.533Z,99.99
2017-01-10T01:28:58.180Z,99.99
2017-01-10T01:30:09.602Z,99.99
2017-01-10T01:31:21.202Z,99.99
2017-01-10T01:32:32.602Z,99.99
2017-01-10T01:33:44.032Z,99.99
2017-01-10T01:34:55.481Z,99.99
2017-01-10T01:36:06.878Z,99.99
2017-01-10T01:37:18.281Z,99.99
2017-01-10T01:38:29.679Z,99.99
2017-01-10T01:39:41.087Z,99.99
2017-01-10T01:40:52.492Z,99.99
2017-01-10T01:42:03.891Z,99.67
2017-01-10T01:43:15.294Z,99.29
2017-01-10T01:44:26.694Z,99.58
2017-01-10T01:45:38.148Z,99.48
2017-01-10T01:46:49.543Z,99.01
2017-01-10T01:48:00.941Z,99.29
2017-01-10T01:49:12.344Z,99.48
2017-01-10T01:50:23.746Z,99.48
2017-01-10T01:51:35.193Z,99.39
2017-01-10T01:52:46.593Z,99.48
2017-01-10T01:53:57.990Z,99.29
2017-01-10T01:55:09.394Z,99.39
2017-01-10T01:56:20.792Z,99.43
2017-01-10T01:57:32.244Z,99.67
2017-01-10T01:58:43.635Z,99.29
2017-01-10T01:59:55.239Z,99.39
2017-01-10T02:01:06.640Z,99.58
2017-01-10T02:02:18.248Z,99.58
2017-01-10T02:03:29.699Z,99.58
2017-01-10T02:04:41.112Z,99.48
2017-01-10T02:05:52.513Z,99.01
2017-01-10T02:07:03.917Z,99.39
2017-01-10T02:08:15.520Z,99.39
2017-01-10T02:09:26.976Z,99.39
2017-01-10T02:10:38.571Z,99.67
2017-01-10T02:11:49.979Z,99.58
2017-01-10T02:13:01.613Z,99.1
2017-01-10T02:14:13.014Z,99.39
2017-01-10T02:15:24.461Z,99.1
2017-01-10T02:16:35.873Z,99.15
2017-01-10T02:17:47.263Z,99.01
2017-01-10T02:18:58.662Z,99.29
2017-01-10T02:20:10.263Z,98.72
2017-01-10T02:21:21.715Z,98.72
2017-01-10T02:22:33.116Z,98.54
2017-01-10T02:23:44.716Z,98.63
2017-01-10T02:24:56.115Z,98.54
2017-01-10T02:26:07.511Z,98.91
2017-01-10T02:27:18.962Z,99.24
2017-01-10T02:28:30.554Z,99.1
2017-01-10T02:29:41.962Z,98.96
2017-01-10T02:30:53.361Z,99.48
2017-01-10T02:32:04.773Z,98.91
2017-01-10T02:33:16.223Z,98.91
2017-01-10T02:34:27.616Z,98.63
2017-01-10T02:35:39.021Z,98.91
2017-01-10T02:36:50.625Z,98.44
2017-01-10T02:38:02.233Z,98.82
2017-01-10T02:39:13.882Z,98.63
2017-01-10T02:40:25.280Z,98.54
2017-01-10T02:41:36.684Z,99.1
2017-01-10T02:42:48.291Z,99.43
2017-01-10T02:43:59.692Z,99.29
2017-01-10T02:45:11.547Z,99.39
2017-01-10T02:46:23.147Z,98.86
2017-01-10T02:47:34.541Z,98.72
2017-01-10T02:48:45.963Z,99.29
2017-01-10T02:49:57.565Z,99.15
2017-01-10T02:51:09.022Z,99.29
2017-01-10T02:52:20.415Z,99.62
2017-01-10T02:53:31.821Z,99.43
2017-01-10T02:54:43.220Z,99.1
2017-01-10T02:55:54.613Z,99.1
2017-01-10T02:57:06.052Z,99.05
2017-01-10T02:58:17.475Z,99.62
2017-01-10T02:59:28.881Z,99.62
2017-01-10T03:00:40.484Z,99.29
2017-01-10T03:01:51.885Z,98.91
2017-01-10T03:03:03.346Z,99.2
2017-01-10T03:04:14.748Z,99.1
2017-01-10T03:05:26.157Z,98.72
2017-01-10T03:06:37.590Z,98.63
2017-01-10T03:07:49.000Z,98.77
2017-01-10T03:09:00.457Z,98.72
2017-01-10T03:10:11.856Z,98.54
2017-01-10T03:11:23.260Z,98.82
2017-01-10T03:12:34.668Z,98.82
2017-01-10T03:13:46.268Z,98.63
2017-01-10T03:14:57.719Z,98.77
2017-01-10T03:16:09.155Z,98.63
2017-01-10T03:17:20.754Z,98.2
2017-01-10T03:18:32.192Z,98.25
2017-01-10T03:19:43.596Z,98.58
2017-01-10T03:20:55.194Z,98.25
2017-01-10T03:22:06.600Z,98.01
2017-01-10T03:23:18.205Z,98.77
2017-01-10T03:24:29.602Z,98.58
2017-01-10T03:25:41.049Z,98.68
2017-01-10T03:26:52.444Z,98.11
2017-01-10T03:28:03.839Z,98.2
2017-01-10T03:29:15.246Z,98.2
2017-01-10T03:30:26.641Z,97.92
2017-01-10T03:31:38.085Z,97.87
2017-01-10T03:32:49.690Z,97.92
2017-01-10T03:34:01.122Z,97.63
2017-01-10T03:35:12.522Z,98.11
2017-01-10T03:36:23.929Z,97.54
2017-01-10T03:37:35.379Z,97.44
2017-01-10T03:38:46.781Z,97.44
2017-01-10T03:39:58.191Z,97.44
2017-01-10T03:41:09.599Z,97.63
2017-01-10T03:42:20.993Z,97.63
2017-01-10T03:43:32.437Z,97.44
2017-01-10T03:44:43.846Z,97.54
2017-01-10T03:45:55.249Z,97.35
2017-01-10T03:47:06.656Z,97.54
2017-01-10T03:48:18.266Z,97.63
2017-01-10T03:49:29.721Z,97.44
2017-01-10T03:50:41.119Z,97.44
2017-01-10T03:51:52.729Z,97.63
2017-01-10T03:53:04.131Z,97.82
2017-01-10T03:54:15.542Z,97.82
2017-01-10T03:55:26.987Z,98.11
2017-01-10T03:56:38.390Z,97.82
2017-01-10T03:57:49.786Z,97.63
2017-01-10T03:59:01.193Z,97.63
2017-01-10T04:00:12.602Z,97.73
2017-01-10T04:01:24.048Z,97.82
2017-01-10T04:02:35.451Z,97.63
2017-01-10T04:03:47.054Z,97.73
2017-01-10T04:04:58.457Z,97.92
2017-01-10T04:06:09.866Z,97.63
2017-01-10T04:07:21.719Z,97.63
2017-01-10T04:08:33.116Z,97.54
2017-01-10T04:09:44.922Z,97.54
2017-01-10T04:10:56.328Z,97.82
2017-01-10T04:12:07.730Z,97.54
2017-01-10T04:13:19.181Z,97.54
2017-01-10T04:14:30.593Z,97.06
2017-01-10T04:15:41.989Z,97.63
2017-01-10T04:16:53.387Z,97.54
2017-01-10T04:18:04.787Z,97.63
2017-01-10T04:19:16.237Z,97.63
2017-01-10T04:20:27.831Z,97.44
2017-01-10T04:21:39.234Z,97.35
2017-01-10T04:22:50.643Z,97.44
2017-01-10T04:24:02.050Z,97.25
2017-01-10T04:25:13.504Z,97.44
2017-01-10T04:26:24.903Z,97.73
2017-01-10T04:27:36.301Z,97.25
2017-01-10T04:28:47.696Z,97.16
2017-01-10T04:29:59.100Z,97.63
2017-01-10T04:31:10.556Z,97.44
2017-01-10T04:32:21.963Z,97.44
2017-01-10T04:33:33.563Z,97.54
2017-01-10T04:34:44.971Z,97.25
2017-01-10T04:35:56.377Z,96.97
2017-01-10T04:37:07.826Z,97.25
2017-01-10T04:38:19.228Z,97.16
2017-01-10T04:39:30.633Z,97.06
2017-01-10T04:40:42.035Z,97.54
2017-01-10T04:41:53.438Z,97.54
2017-01-10T04:43:04.892Z,97.44
2017-01-10T04:44:16.294Z,97.25
2017-01-10T04:45:27.697Z,97.35
2017-01-10T04:46:39.128Z,97.06
2017-01-10T04:47:50.528Z,97.16
2017-01-10T04:49:01.983Z,97.73
2017-01-10T04:50:13.383Z,96.88
2017-01-10T04:51:24.782Z,97.06
2017-01-10T04:52:36.183Z,96.88
2017-01-10T04:53:47.583Z,97.44
2017-01-10T04:54:59.040Z,97.44
2017-01-10T04:56:10.441Z,97.06
2017-01-10T04:57:21.840Z,97.25
2017-01-10T04:58:33.234Z,97.35
2017-01-10T04:59:44.632Z,97.44
2017-01-10T05:00:56.276Z,97.54
2017-01-10T05:02:07.680Z,96.78
2017-01-10T05:03:19.078Z,96.78
2017-01-10T05:04:30.484Z,96.59
2017-01-10T05:05:41.944Z,96.59
2017-01-10T05:06:53.354Z,96.88
2017-01-10T05:08:04.950Z,96.78
2017-01-10T05:09:16.346Z,96.88
2017-01-10T05:10:27.745Z,96.78
2017-01-10T05:11:39.199Z,97.44
2017-01-10T05:12:50.596Z,96.78
2017-01-10T05:14:01.995Z,96.59
2017-01-10T05:15:13.395Z,96.59
2017-01-10T05:16:24.997Z,96.97
2017-01-10T05:17:36.447Z,96.4
2017-01-10T05:18:47.870Z,96.59
2017-01-10T05:19:59.275Z,96.78
2017-01-10T05:21:10.698Z,96.59
2017-01-10T05:22:22.107Z,96.59
2017-01-10T05:23:33.563Z,96.59
2017-01-10T05:24:44.964Z,96.78
2017-01-10T05:25:56.369Z,96.59
2017-01-10T05:27:07.772Z,97.35
2017-01-10T05:28:19.191Z,96.78
2017-01-10T05:29:30.646Z,96.78
2017-01-10T05:30:42.047Z,97.16
2017-01-10T05:31:53.651Z,97.35
2017-01-10T05:33:05.255Z,96.78
2017-01-10T05:34:16.652Z,96.78
2017-01-10T05:35:28.103Z,96.4
2017-01-10T05:36:39.505Z,96.69
2017-01-10T05:37:50.905Z,96.59
2017-01-10T05:39:02.313Z,96.59
2017-01-10T05:40:13.714Z,96.69
2017-01-10T05:41:25.373Z,96.4
2017-01-10T05:42:36.776Z,96.78
2017-01-10T05:43:48.179Z,96.69
2017-01-10T05:44:59.576Z,97.06
2017-01-10T05:46:10.981Z,96.4
2017-01-10T05:47:22.430Z,96.69
2017-01-10T05:48:33.836Z,96.5
2017-01-10T05:49:45.241Z,96.59
2017-01-10T05:50:56.636Z,96.69
2017-01-10T05:52:08.043Z,96.88
2017-01-10T05:53:19.698Z,97.44
2017-01-10T05:54:31.098Z,96.78
2017-01-10T05:55:42.498Z,97.06
2017-01-10T05:56:53.894Z,97.25
2017-01-10T05:58:05.521Z,97.25
2017-01-10T05:59:17.169Z,96.88
2017-01-10T06:00:28.586Z,97.73
2017-01-10T06:01:39.989Z,98.01
2017-01-10T06:02:51.393Z,98.11
2017-01-10T06:04:02.995Z,97.73
2017-01-10T06:05:14.449Z,98.11
2017-01-10T06:06:25.857Z,98.58
2017-01-10T06:07:37.261Z,98.68
2017-01-10T06:08:48.693Z,98.11
2017-01-10T06:10:00.099Z,98.11
2017-01-10T06:11:11.543Z,98.39
2017-01-10T06:12:22.935Z,98.68
2017-01-10T06:13:34.329Z,98.49
2017-01-10T06:14:45.933Z,98.3
2017-01-10T06:15:57.337Z,98.3
2017-01-10T06:17:08.786Z,98.39
2017-01-10T06:18:20.390Z,98.86
2017-01-10T06:19:31.785Z,99.05
2017-01-10T06:20:43.387Z,98.39
2017-01-10T06:21:54.987Z,98.86
2017-01-10T06:23:06.449Z,99.05
2017-01-10T06:24:17.849Z,98.77
2017-01-10T06:25:29.236Z,98.2
2017-01-10T06:26:40.841Z,98.86
2017-01-10T06:27:52.246Z,98.39
2017-01-10T06:29:03.892Z,98.68
2017-01-10T06:30:15.297Z,98.86
2017-01-10T06:31:26.692Z,98.39
2017-01-10T06:32:38.095Z,98.11
2017-01-10T06:33:49.492Z,98.77
2017-01-10T06:35:00.933Z,98.3
2017-01-10T06:36:12.339Z,98.3
2017-01-10T06:37:23.736Z,98.39
2017-01-10T06:38:35.131Z,98.58
2017-01-10T06:39:46.535Z,98.77
2017-01-10T06:40:57.934Z,98.01
2017-01-10T06:42:09.532Z,98.2
2017-01-10T06:43:21.127Z,98.11
2017-01-10T06:44:32.728Z,98.2
2017-01-10T06:45:44.201Z,98.11
2017-01-10T06:46:55.636Z,98.2
2017-01-10T06:48:07.045Z,98.2
2017-01-10T06:49:18.442Z,98.01
2017-01-10T06:50:29.837Z,98.2
2017-01-10T06:51:41.284Z,98.2
2017-01-10T06:52:52.892Z,98.01
2017-01-10T06:54:04.534Z,97.82
2017-01-10T06:55:15.934Z,98.3
2017-01-10T06:56:27.342Z,98.11
2017-01-10T06:57:38.989Z,97.54
2017-01-10T06:58:50.393Z,97.44
2017-01-10T07:00:01.801Z,98.01
2017-01-10T07:01:13.202Z,97.92
2017-01-10T07:02:24.603Z,97.44
2017-01-10T07:03:36.056Z,97.44
2017-01-10T07:04:47.466Z,97.54
2017-01-10T07:05:58.873Z,97.44
2017-01-10T07:07:10.264Z,97.63
2017-01-10T07:08:21.661Z,97.44
2017-01-10T07:09:33.127Z,97.44
2017-01-10T07:10:44.726Z,97.44
2017-01-10T07:11:56.128Z,97.49
2017-01-10T07:13:07.725Z,97.25
2017-01-10T07:14:19.129Z,96.97
2017-01-10T07:15:30.575Z,97.02
2017-01-10T07:16:41.965Z,97.49
2017-01-10T07:17:53.363Z,97.73
2017-01-10T07:19:04.764Z,97.16
2017-01-10T07:20:16.170Z,97.54
2017-01-10T07:21:27.620Z,97.44
2017-01-10T07:22:39.222Z,97.63
2017-01-10T07:23:50.632Z,97.82
2017-01-10T07:25:02.036Z,97.58
2017-01-10T07:26:13.434Z,97.68
2017-01-10T07:27:24.837Z,97.68
2017-01-10T07:28:36.234Z,97.39
2017-01-10T07:29:47.640Z,97.2
2017-01-10T07:30:59.034Z,97.77
2017-01-10T07:32:10.489Z,97.39
2017-01-10T07:33:21.880Z,97.3
2017-01-10T07:34:33.472Z,97.3
2017-01-10T07:35:45.072Z,97.2
2017-01-10T07:36:56.473Z,97.54
2017-01-10T07:38:07.927Z,97.49
2017-01-10T07:39:19.515Z,97.49
2017-01-10T07:40:31.115Z,97.44
2017-01-10T07:41:42.506Z,97.73
2017-01-10T07:42:53.935Z,97.39
2017-01-10T07:44:05.381Z,97.54
2017-01-10T07:45:16.776Z,97.44
2017-01-10T07:46:28.172Z,97.49
2017-01-10T07:47:39.774Z,97.2
2017-01-10T07:48:51.175Z,97.39
2017-01-10T07:50:02.624Z,97.16
2017-01-10T07:51:14.245Z,97.11
2017-01-10T07:52:25.647Z,97.2
2017-01-10T07:53:37.045Z,97.11
2017-01-10T07:54:48.447Z,96.83
2017-01-10T07:55:59.903Z,97.2
2017-01-10T07:57:11.331Z,97.2
2017-01-10T07:58:22.727Z,96.92
2017-01-10T07:59:34.135Z,97.06
2017-01-10T08:00:45.526Z,97.25
2017-01-10T08:01:56.972Z,97.25
2017-01-10T08:03:08.376Z,97.2
2017-01-10T08:04:19.972Z,96.54
2017-01-10T08:05:31.378Z,96.78
2017-01-10T08:06:42.798Z,96.59
2017-01-10T08:07:54.239Z,96.88
2017-01-10T08:09:05.636Z,96.59
2017-01-10T08:10:17.033Z,96.64
2017-01-10T08:11:28.429Z,96.97
2017-01-10T08:12:39.821Z,96.69
2017-01-10T08:13:51.279Z,96.78
2017-01-10T08:15:02.696Z,96.78
2017-01-10T08:16:14.091Z,96.78
2017-01-10T08:17:25.493Z,96.69
2017-01-10T08:18:36.897Z,96.69
2017-01-10T08:19:48.750Z,96.59
2017-01-10T08:21:00.152Z,96.78
2017-01-10T08:22:11.551Z,96.78
2017-01-10T08:23:22.962Z,96.78
2017-01-10T08:24:34.359Z,96.88
2017-01-10T08:25:45.800Z,96.59
2017-01-10T08:26:57.200Z,96.69
2017-01-10T08:28:08.635Z,96.59
2017-01-10T08:29:20.244Z,96.5
2017-01-10T08:30:31.635Z,96.59
2017-01-10T08:31:43.089Z,96.59
2017-01-10T08:32:54.696Z,96.69
2017-01-10T08:34:06.097Z,96.4
2017-01-10T08:35:17.699Z,96.31
2017-01-10T08:36:29.096Z,96.21
2017-01-10T08:37:40.553Z,96.31
2017-01-10T08:38:51.960Z,96.21
2017-01-10T08:40:03.360Z,96.02
2017-01-10T08:41:14.953Z,96.31
2017-01-10T08:42:26.350Z,96.12
2017-01-10T08:43:38.002Z,96.02
2017-01-10T08:44:49.403Z,96.69
2017-01-10T08:46:00.808Z,96.31
2017-01-10T08:47:12.205Z,96.02
2017-01-10T08:48:23.609Z,96.31
2017-01-10T08:49:35.054Z,95.93
2017-01-10T08:50:46.659Z,96.31
2017-01-10T08:51:58.261Z,96.12
2017-01-10T08:53:09.868Z,96.5
2017-01-10T08:54:21.469Z,96.5
2017-01-10T08:55:32.921Z,96.31
2017-01-10T08:56:44.320Z,96.21
2017-01-10T08:57:55.920Z,96.12
2017-01-10T08:59:07.326Z,95.83
2017-01-10T09:00:18.926Z,96.31
2017-01-10T09:01:30.575Z,96.31
2017-01-10T09:02:41.975Z,96.59
2017-01-10T09:03:53.381Z,96.69
2017-01-10T09:05:04.783Z,96.31
2017-01-10T09:06:16.390Z,96.4
2017-01-10T09:07:27.833Z,96.02
2017-01-10T09:08:39.247Z,95.83
2017-01-10T09:09:50.657Z,96.31
2017-01-10T09:11:02.058Z,96.02
2017-01-10T09:12:13.464Z,96.69
2017-01-10T09:13:24.914Z,96.4
2017-01-10T09:14:36.306Z,95.83
2017-01-10T09:15:47.704Z,96.31
2017-01-10T09:16:59.105Z,95.93
2017-01-10T09:18:10.718Z,96.02
2017-01-10T09:19:22.177Z,96.31
2017-01-10T09:20:33.578Z,96.31
2017-01-10T09:21:44.987Z,96.12
2017-01-10T09:22:56.392Z,95.93
2017-01-10T09:24:07.988Z,96.31
2017-01-10T09:25:19.442Z,95.55
2017-01-10T09:26:30.853Z,95.36
2017-01-10T09:27:42.252Z,95.64
2017-01-10T09:28:53.649Z,95.55
2017-01-10T09:30:05.449Z,95.74
2017-01-10T09:31:16.900Z,95.64
2017-01-10T09:32:28.336Z,96.12
2017-01-10T09:33:39.738Z,95.93
2017-01-10T09:34:51.134Z,96.31
2017-01-10T09:36:02.531Z,96.02
2017-01-10T09:37:13.977Z,96.12
2017-01-10T09:38:25.380Z,96.12
2017-01-10T09:39:36.778Z,95.64
2017-01-10T09:40:48.171Z,95.64
2017-01-10T09:41:59.572Z,95.64
2017-01-10T09:43:11.026Z,96.12
2017-01-10T09:44:22.435Z,95.83
2017-01-10T09:45:33.838Z,95.45
2017-01-10T09:46:45.433Z,95.26
2017-01-10T09:47:56.837Z,95.26
2017-01-10T09:49:08.300Z,95.83
2017-01-10T09:50:19.916Z,95.45
2017-01-10T09:51:31.512Z,95.64
2017-01-10T09:52:42.920Z,95.26
2017-01-10T09:53:54.319Z,95.31
2017-01-10T09:55:05.771Z,95.22
2017-01-10T09:56:17.172Z,95.03
2017-01-10T09:57:28.566Z,95.69
2017-01-10T09:58:39.966Z,95.79
2017-01-10T09:59:51.370Z,95.69
2017-01-10T10:01:02.764Z,96.07
2017-01-10T10:02:14.158Z,96.45
2017-01-10T10:03:25.555Z,96.55
2017-01-10T10:04:37.154Z,95.98
2017-01-10T10:05:48.611Z,96.36
2017-01-10T10:07:00.018Z,96.26
2017-01-10T10:08:11.425Z,96.55
2017-01-10T10:09:23.025Z,96.26
2017-01-10T10:10:34.626Z,96.55
2017-01-10T10:11:46.075Z,96.07
2017-01-10T10:12:57.473Z,95.88
2017-01-10T10:14:09.077Z,96.36
2017-01-10T10:15:20.479Z,95.69
2017-01-10T10:16:31.877Z,96.07
2017-01-10T10:17:43.323Z,96.36
2017-01-10T10:18:54.927Z,96.07
2017-01-10T10:20:06.330Z,96.07
2017-01-10T10:21:17.737Z,96.64
2017-01-10T10:22:29.137Z,96.73
2017-01-10T10:23:40.592Z,96.83
2017-01-10T10:24:52.032Z,96.83
2017-01-10T10:26:03.428Z,96.73
2017-01-10T10:27:15.027Z,96.55
2017-01-10T10:28:26.422Z,95.69
2017-01-10T10:29:37.865Z,96.64
2017-01-10T10:30:49.278Z,95.6
2017-01-10T10:32:00.686Z,96.64
2017-01-10T10:33:12.086Z,96.55
2017-01-10T10:34:23.483Z,97.02
2017-01-10T10:35:35.161Z,97.49
2017-01-10T10:36:46.751Z,97.49
2017-01-10T10:37:58.342Z,97.68
2017-01-10T10:39:09.743Z,97.49
2017-01-10T10:40:21.144Z,97.3
2017-01-10T10:41:32.790Z,97.68
2017-01-10T10:42:44.202Z,98.72
2017-01-10T10:43:55.600Z,98.35
2017-01-10T10:45:07.192Z,97.97
2017-01-10T10:46:18.594Z,97.49
2017-01-10T10:47:30.449Z,98.77
2017-01-10T10:48:41.845Z,98.06
2017-01-10T10:49:53.241Z,98.06
2017-01-10T10:51:04.644Z,98.39
2017-01-10T10:52:16.042Z,98.06
2017-01-10T10:53:27.495Z,97.49
2017-01-10T10:54:38.903Z,97.73
2017-01-10T10:55:50.497Z,97.35
2017-01-10T10:57:02.105Z,97.64
2017-01-10T10:58:13.513Z,97.35
2017-01-10T10:59:24.966Z,97.83
2017-01-10T11:00:36.368Z,98.3
2017-01-10T11:01:47.772Z,97.83
2017-01-10T11:02:59.380Z,98.21
2017-01-10T11:04:10.788Z,98.87
2017-01-10T11:05:22.238Z,97.83
2017-01-10T11:06:33.636Z,97.92
2017-01-10T11:07:45.239Z,97.35
2017-01-10T11:08:56.651Z,97.83
2017-01-10T11:10:08.059Z,97.16
2017-01-10T11:11:19.508Z,97.54
2017-01-10T11:12:30.904Z,96.78
2017-01-10T11:13:42.301Z,97.83
2017-01-10T11:14:53.707Z,97.26
2017-01-10T11:16:05.110Z,97.07
2017-01-10T11:17:16.563Z,97.54
2017-01-10T11:18:27.961Z,97.92
2017-01-10T11:19:39.560Z,98.58
2017-01-10T11:20:50.955Z,97.54
2017-01-10T11:22:02.565Z,96.69
2017-01-10T11:23:14.013Z,96.69
2017-01-10T11:24:25.431Z,96.03
2017-01-10T11:25:36.833Z,96.78
2017-01-10T11:26:48.263Z,96.31
2017-01-10T11:27:59.664Z,96.88
2017-01-10T11:29:11.111Z,97.07
2017-01-10T11:30:22.720Z,97.64
2017-01-10T11:31:34.129Z,96.69
2017-01-10T11:32:45.535Z,96.5
2017-01-10T11:33:56.942Z,97.73
2017-01-10T11:35:08.392Z,97.64
2017-01-10T11:36:19.796Z,97.88
2017-01-10T11:37:31.400Z,98.63
2017-01-10T11:38:42.805Z,99.99
2017-01-10T11:39:54.206Z,99.3
2017-01-10T11:41:05.656Z,99.99
2017-01-10T11:42:17.060Z,99.99
2017-01-10T11:43:28.460Z,99.68
2017-01-10T11:44:39.861Z,99.58
2017-01-10T11:45:51.270Z,99.99
2017-01-10T11:47:02.925Z,99.99
2017-01-10T11:48:14.340Z,99.68
2017-01-10T11:49:25.743Z,99.99
2017-01-10T11:50:37.152Z,99.63
2017-01-10T11:51:48.554Z,99.91
2017-01-10T11:53:00.004Z,99.44
2017-01-10T11:54:11.436Z,99.63
2017-01-10T11:55:22.841Z,99.99
2017-01-10T11:56:34.237Z,99.25
2017-01-10T11:57:45.641Z,99.99
2017-01-10T11:58:57.120Z,99.99
2017-01-10T12:00:08.749Z,99.99
2017-01-10T12:01:20.150Z,99.99
2017-01-10T12:02:31.551Z,99.99
2017-01-10T12:03:43.152Z,99.99
2017-01-10T12:04:54.601Z,99.99
2017-01-10T12:06:05.989Z,99.99
2017-01-10T12:07:17.391Z,99.99
2017-01-10T12:08:28.816Z,99.99
2017-01-10T12:09:40.213Z,99.99
2017-01-10T12:10:51.618Z,99.99
2017-01-10T12:12:03.013Z,99.99
2017-01-10T12:13:14.421Z,99.99
2017-01-10T12:14:25.823Z,99.99
2017-01-10T12:15:37.269Z,99.99
2017-01-10T12:16:48.669Z,99.99
2017-01-10T12:18:00.077Z,99.99
2017-01-10T12:19:11.673Z,99.99
2017-01-10T12:20:23.068Z,99.99
2017-01-10T12:21:34.527Z,99.99
2017-01-10T12:22:46.127Z,99.99
2017-01-10T12:23:57.550Z,99.99
2017-01-10T12:25:08.946Z,99.99
2017-01-10T12:26:20.355Z,99.99
2017-01-10T12:27:31.808Z,99.99
2017-01-10T12:28:43.409Z,99.99
2017-01-10T12:29:55.022Z,99.99
2017-01-10T12:31:06.424Z,99.99
2017-01-10T12:32:18.035Z,99.99
2017-01-10T12:33:29.486Z,99.99
2017-01-10T12:34:40.891Z,99.99
2017-01-10T12:35:52.294Z,99.99
2017-01-10T12:37:03.698Z,99.99
2017-01-10T12:38:15.302Z,99.99
2017-01-10T12:39:26.751Z,99.99
2017-01-10T12:40:38.155Z,99.99
2017-01-10T12:41:49.561Z,99.99
2017-01-10T12:43:00.964Z,99.99
2017-01-10T12:44:12.368Z,99.99
2017-01-10T12:45:23.823Z,99.99
2017-01-10T12:46:35.221Z,99.99
2017-01-10T12:47:46.620Z,99.99
2017-01-10T12:48:58.022Z,99.99
2017-01-10T12:50:09.421Z,99.99
2017-01-10T12:51:21.070Z,99.99
2017-01-10T12:52:32.675Z,99.99
2017-01-10T12:53:44.082Z,99.99
2017-01-10T12:54:55.486Z,99.99
2017-01-10T12:56:06.891Z,99.99
2017-01-10T12:57:18.339Z,99.99
2017-01-10T12:58:29.737Z,99.99
2017-01-10T12:59:41.139Z,99.99
2017-01-10T13:00:52.546Z,99.99
2017-01-10T13:02:03.946Z,99.99
2017-01-10T13:03:15.400Z,99.99
2017-01-10T13:04:26.802Z,99.99
2017-01-10T13:05:38.215Z,99.99
2017-01-10T13:06:49.616Z,99.99
2017-01-10T13:08:01.219Z,99.99
2017-01-10T13:09:12.877Z,99.99
2017-01-10T13:10:24.280Z,99.99
2017-01-10T13:11:35.685Z,99.99
2017-01-10T13:12:47.088Z,99.99
2017-01-10T13:13:58.488Z,99.99
2017-01-10T13:15:10.143Z,99.99
2017-01-10T13:16:21.548Z,99.99
2017-01-10T13:17:32.947Z,99.99
2017-01-10T13:18:44.373Z,99.99
2017-01-10T13:19:56.013Z,99.99
2017-01-10T13:21:07.471Z,99.99
2017-01-10T13:22:18.872Z,99.99
2017-01-10T13:23:30.479Z,99.99
2017-01-10T13:24:42.084Z,99.99
2017-01-10T13:25:53.530Z,99.99
2017-01-10T13:27:05.197Z,99.99
2017-01-10T13:28:16.594Z,99.99
2017-01-10T13:29:27.990Z,99.99
2017-01-10T13:30:39.391Z,99.99
2017-01-10T13:31:50.795Z,99.99
2017-01-10T13:33:02.255Z,99.99
2017-01-10T13:34:13.667Z,99.99
2017-01-10T13:35:25.060Z,99.99
2017-01-10T13:36:36.464Z,99.99
2017-01-10T13:37:47.888Z,99.99
2017-01-10T13:38:59.348Z,99.99
2017-01-10T13:40:10.969Z,99.99
2017-01-10T13:41:22.401Z,99.99
2017-01-10T13:42:33.831Z,99.99
2017-01-10T13:43:45.235Z,99.99
2017-01-10T13:44:56.683Z,99.99
2017-01-10T13:46:08.287Z,99.99
2017-01-10T13:47:19.697Z,99.99
2017-01-10T13:48:31.298Z,99.99
2017-01-10T13:49:42.708Z,99.99
2017-01-10T13:50:54.106Z,99.99
2017-01-10T13:52:05.513Z,99.99
2017-01-10T13:53:16.948Z,99.99
2017-01-10T13:54:28.345Z,99.99
2017-01-10T13:55:39.783Z,99.99
2017-01-10T13:56:51.190Z,99.99
2017-01-10T13:58:02.585Z,99.99
2017-01-10T13:59:13.989Z,99.99
2017-01-10T14:00:25.392Z,99.99
2017-01-10T14:01:36.850Z,99.99
2017-01-10T14:02:48.253Z,99.99
2017-01-10T14:03:59.659Z,99.99
2017-01-10T14:05:11.064Z,99.99
2017-01-10T14:06:22.460Z,99.99
2017-01-10T14:07:33.908Z,99.99
2017-01-10T14:08:45.316Z,99.99
2017-01-10T14:09:56.724Z,99.99
2017-01-10T14:11:08.143Z,99.99
2017-01-10T14:12:19.544Z,99.99
2017-01-10T14:13:31.198Z,99.99
2017-01-10T14:14:42.792Z,99.99
2017-01-10T14:15:54.193Z,99.99
2017-01-10T14:17:05.597Z,99.99
2017-01-10T14:18:17.000Z,99.99
2017-01-10T14:19:28.457Z,99.99
2017-01-10T14:20:40.066Z,99.99
2017-01-10T14:21:51.471Z,99.99
2017-01-10T14:23:02.871Z,99.99
2017-01-10T14:24:14.279Z,99.99
2017-01-10T14:25:25.729Z,99.99
2017-01-10T14:26:37.129Z,99.99
2017-01-10T14:27:48.738Z,99.99
2017-01-10T14:29:00.368Z,99.99
2017-01-10T14:30:11.965Z,99.99
2017-01-10T14:31:23.420Z,99.99
2017-01-10T14:32:34.817Z,99.99
2017-01-10T14:33:46.412Z,99.99
2017-01-10T14:34:57.806Z,99.99
2017-01-10T14:36:09.208Z,99.99
2017-01-10T14:37:20.856Z,99.99
2017-01-10T14:38:32.253Z,99.99
2017-01-10T14:39:43.655Z,99.99
2017-01-10T14:40:55.060Z,99.99
2017-01-10T14:42:06.460Z,99.99
2017-01-10T14:43:17.914Z,99.99
2017-01-10T14:44:29.317Z,99.99
2017-01-10T14:45:40.717Z,99.99
2017-01-10T14:46:52.530Z,99.99
2017-01-10T14:48:03.932Z,99.99
2017-01-10T14:49:15.391Z,99.99
2017-01-10T14:50:26.795Z,99.99
2017-01-10T14:51:38.198Z,99.99
2017-01-10T14:52:49.610Z,99.99
2017-01-10T14:54:01.016Z,99.99
2017-01-10T14:55:12.686Z,99.99
2017-01-10T14:56:24.090Z,99.99
2017-01-10T14:57:35.499Z,99.99
2017-01-10T14:58:46.899Z,99.99
2017-01-10T14:59:58.309Z,99.99
2017-01-10T15:01:09.765Z,99.99
2017-01-10T15:02:21.169Z,99.99
2017-01-10T15:03:32.571Z,99.99
2017-01-10T15:04:44.577Z,99.99
2017-01-10T15:05:55.982Z,99.99
2017-01-10T15:07:07.431Z,99.99
2017-01-10T15:08:18.823Z,99.99
2017-01-10T15:09:30.221Z,99.99
2017-01-10T15:10:41.620Z,99.99
2017-01-10T15:11:53.033Z,99.99
2017-01-10T15:13:04.484Z,99.99
2017-01-10T15:14:16.088Z,99.99
2017-01-10T15:15:27.491Z,99.99
2017-01-10T15:16:38.887Z,99.99
2017-01-10T15:17:50.290Z,99.99
2017-01-10T15:19:01.746Z,99.99
2017-01-10T15:20:13.151Z,99.99
2017-01-10T15:21:24.562Z,99.99
2017-01-10T15:22:35.962Z,99.99